sensor_id;sensor_type;location;lat;lon;timestamp;P1;durP1;ratioP1;P2;durP2;ratioP2
11533;SDS011;5823;50.588;8.462;2023-02-01T00:02:21;0.10;;;0.10;;
11533;SDS011;5823;50.588;8.462;2023-02-01T00:04:47;0.50;;;0.20;;
11533;SDS011;5823;50.588;8.462;2023-02-01T00:07:14;0.82;;;0.73;;
11533;SDS011;5823;50.588;8.462;2023-02-01T00:09:40;0.30;;;0.30;;
11533;SDS011;5823;50.588;8.462;2023-02-01T00:12:06;0.25;;;0.25;;
11533;SDS011;5823;50.588;8.462;2023-02-01T00:14:34;0.30;;;0.28;;
11533;SDS011;5823;50.588;8.462;2023-02-01T00:17:03;0.20;;;0.20;;
11533;SDS011;5823;50.588;8.462;2023-02-01T00:19:29;0.20;;;0.20;;
11533;SDS011;5823;50.588;8.462;2023-02-01T00:21:55;0.32;;;0.32;;
11533;SDS011;5823;50.588;8.462;2023-02-01T00:24:22;0.28;;;0.25;;
11533;SDS011;5823;50.588;8.462;2023-02-01T00:26:51;0.38;;;0.30;;
11533;SDS011;5823;50.588;8.462;2023-02-01T00:29:18;0.50;;;0.50;;
11533;SDS011;5823;50.588;8.462;2023-02-01T00:31:45;0.20;;;0.20;;
11533;SDS011;5823;50.588;8.462;2023-02-01T00:34:12;0.32;;;0.30;;
11533;SDS011;5823;50.588;8.462;2023-02-01T00:36:39;0.40;;;0.40;;
11533;SDS011;5823;50.588;8.462;2023-02-01T00:39:05;0.30;;;0.30;;
11533;SDS011;5823;50.588;8.462;2023-02-01T00:41:31;0.47;;;0.43;;
11533;SDS011;5823;50.588;8.462;2023-02-01T00:43:57;0.50;;;0.50;;
11533;SDS011;5823;50.588;8.462;2023-02-01T00:46:24;0.60;;;0.60;;
11533;SDS011;5823;50.588;8.462;2023-02-01T00:48:51;0.60;;;0.60;;
11533;SDS011;5823;50.588;8.462;2023-02-01T00:51:18;1.30;;;0.68;;
11533;SDS011;5823;50.588;8.462;2023-02-01T00:53:45;0.82;;;0.82;;
11533;SDS011;5823;50.588;8.462;2023-02-01T00:56:11;0.50;;;0.50;;
11533;SDS011;5823;50.588;8.462;2023-02-01T00:58:37;0.30;;;0.30;;
11533;SDS011;5823;50.588;8.462;2023-02-01T01:01:05;0.25;;;0.25;;
11533;SDS011;5823;50.588;8.462;2023-02-01T01:03:31;0.22;;;0.22;;
11533;SDS011;5823;50.588;8.462;2023-02-01T01:06:01;0.57;;;0.55;;
11533;SDS011;5823;50.588;8.462;2023-02-01T01:08:27;0.47;;;0.47;;
11533;SDS011;5823;50.588;8.462;2023-02-01T01:10:53;0.50;;;0.50;;
11533;SDS011;5823;50.588;8.462;2023-02-01T01:13:20;0.20;;;0.20;;
11533;SDS011;5823;50.588;8.462;2023-02-01T01:15:46;0.28;;;0.22;;
11533;SDS011;5823;50.588;8.462;2023-02-01T01:18:12;0.10;;;0.10;;
11533;SDS011;5823;50.588;8.462;2023-02-01T01:20:39;0.30;;;0.30;;
11533;SDS011;5823;50.588;8.462;2023-02-01T01:23:08;0.73;;;0.50;;
11533;SDS011;5823;50.588;8.462;2023-02-01T01:25:36;0.30;;;0.30;;
11533;SDS011;5823;50.588;8.462;2023-02-01T01:28:02;0.35;;;0.32;;
11533;SDS011;5823;50.588;8.462;2023-02-01T01:30:29;0.40;;;0.40;;
11533;SDS011;5823;50.588;8.462;2023-02-01T01:32:55;0.40;;;0.40;;
11533;SDS011;5823;50.588;8.462;2023-02-01T01:35:21;0.50;;;0.50;;
11533;SDS011;5823;50.588;8.462;2023-02-01T01:37:47;0.55;;;0.47;;
11533;SDS011;5823;50.588;8.462;2023-02-01T01:40:15;0.30;;;0.30;;
11533;SDS011;5823;50.588;8.462;2023-02-01T01:42:43;0.30;;;0.30;;
11533;SDS011;5823;50.588;8.462;2023-02-01T01:45:16;0.40;;;0.40;;
11533;SDS011;5823;50.588;8.462;2023-02-01T01:47:44;0.30;;;0.30;;
11533;SDS011;5823;50.588;8.462;2023-02-01T01:50:12;0.50;;;0.50;;
11533;SDS011;5823;50.588;8.462;2023-02-01T01:52:41;0.38;;;0.38;;
11533;SDS011;5823;50.588;8.462;2023-02-01T01:55:10;0.75;;;0.75;;
11533;SDS011;5823;50.588;8.462;2023-02-01T01:57:39;0.90;;;0.73;;
11533;SDS011;5823;50.588;8.462;2023-02-01T02:00:08;0.57;;;0.57;;
11533;SDS011;5823;50.588;8.462;2023-02-01T02:02:35;0.45;;;0.45;;
11533;SDS011;5823;50.588;8.462;2023-02-01T02:05:02;0.50;;;0.50;;
11533;SDS011;5823;50.588;8.462;2023-02-01T02:07:29;0.60;;;0.60;;
11533;SDS011;5823;50.588;8.462;2023-02-01T02:09:56;0.40;;;0.40;;
11533;SDS011;5823;50.588;8.462;2023-02-01T02:12:22;0.50;;;0.50;;
11533;SDS011;5823;50.588;8.462;2023-02-01T02:14:50;0.43;;;0.43;;
11533;SDS011;5823;50.588;8.462;2023-02-01T02:17:20;0.50;;;0.50;;
11533;SDS011;5823;50.588;8.462;2023-02-01T02:20:06;0.60;;;0.60;;
11533;SDS011;5823;50.588;8.462;2023-02-01T02:25:37;0.40;;;0.40;;
11533;SDS011;5823;50.588;8.462;2023-02-01T02:28:12;0.68;;;0.45;;
11533;SDS011;5823;50.588;8.462;2023-02-01T02:30:44;0.32;;;0.32;;
11533;SDS011;5823;50.588;8.462;2023-02-01T02:33:21;0.40;;;0.40;;
11533;SDS011;5823;50.588;8.462;2023-02-01T02:35:53;0.30;;;0.30;;
11533;SDS011;5823;50.588;8.462;2023-02-01T02:38:22;0.55;;;0.38;;
11533;SDS011;5823;50.588;8.462;2023-02-01T02:40:54;0.30;;;0.30;;
11533;SDS011;5823;50.588;8.462;2023-02-01T02:43:24;0.52;;;0.52;;
11533;SDS011;5823;50.588;8.462;2023-02-01T02:46:22;0.10;;;0.10;;
11533;SDS011;5823;50.588;8.462;2023-02-01T02:49:10;0.50;;;0.50;;
11533;SDS011;5823;50.588;8.462;2023-02-01T02:51:40;0.70;;;0.60;;
11533;SDS011;5823;50.588;8.462;2023-02-01T02:54:26;0.50;;;0.50;;
11533;SDS011;5823;50.588;8.462;2023-02-01T02:57:12;0.32;;;0.32;;
11533;SDS011;5823;50.588;8.462;2023-02-01T02:59:57;0.38;;;0.38;;
11533;SDS011;5823;50.588;8.462;2023-02-01T03:02:42;0.50;;;0.50;;
11533;SDS011;5823;50.588;8.462;2023-02-01T03:05:32;0.50;;;0.50;;
11533;SDS011;5823;50.588;8.462;2023-02-01T03:08:01;0.57;;;0.57;;
11533;SDS011;5823;50.588;8.462;2023-02-01T03:10:33;0.35;;;0.30;;
11533;SDS011;5823;50.588;8.462;2023-02-01T03:13:02;0.17;;;0.17;;
11533;SDS011;5823;50.588;8.462;2023-02-01T03:15:31;0.20;;;0.20;;
11533;SDS011;5823;50.588;8.462;2023-02-01T03:17:58;0.90;;;0.60;;
11533;SDS011;5823;50.588;8.462;2023-02-01T03:20:27;0.47;;;0.47;;
11533;SDS011;5823;50.588;8.462;2023-02-01T03:22:55;0.15;;;0.15;;
11533;SDS011;5823;50.588;8.462;2023-02-01T03:25:24;0.40;;;0.30;;
11533;SDS011;5823;50.588;8.462;2023-02-01T03:27:52;0.20;;;0.20;;
11533;SDS011;5823;50.588;8.462;2023-02-01T03:30:20;0.38;;;0.20;;
11533;SDS011;5823;50.588;8.462;2023-02-01T03:32:47;0.35;;;0.32;;
11533;SDS011;5823;50.588;8.462;2023-02-01T03:35:25;0.30;;;0.20;;
11533;SDS011;5823;50.588;8.462;2023-02-01T03:37:52;0.45;;;0.30;;
11533;SDS011;5823;50.588;8.462;2023-02-01T03:40:21;0.10;;;0.10;;
11533;SDS011;5823;50.588;8.462;2023-02-01T03:42:48;0.20;;;0.20;;
11533;SDS011;5823;50.588;8.462;2023-02-01T03:45:16;0.25;;;0.20;;
11533;SDS011;5823;50.588;8.462;2023-02-01T03:47:45;0.32;;;0.30;;
11533;SDS011;5823;50.588;8.462;2023-02-01T03:50:14;0.25;;;0.13;;
11533;SDS011;5823;50.588;8.462;2023-02-01T03:52:42;0.95;;;0.35;;
11533;SDS011;5823;50.588;8.462;2023-02-01T03:55:09;1.75;;;0.85;;
11533;SDS011;5823;50.588;8.462;2023-02-01T03:57:39;0.50;;;0.40;;
11533;SDS011;5823;50.588;8.462;2023-02-01T04:00:08;0.80;;;0.50;;
11533;SDS011;5823;50.588;8.462;2023-02-01T04:02:35;0.60;;;0.50;;
11533;SDS011;5823;50.588;8.462;2023-02-01T04:05:01;1.05;;;0.52;;
11533;SDS011;5823;50.588;8.462;2023-02-01T04:07:27;0.98;;;0.30;;
11533;SDS011;5823;50.588;8.462;2023-02-01T04:09:53;1.73;;;0.50;;
11533;SDS011;5823;50.588;8.462;2023-02-01T04:12:19;0.60;;;0.30;;
11533;SDS011;5823;50.588;8.462;2023-02-01T04:14:47;0.70;;;0.50;;
11533;SDS011;5823;50.588;8.462;2023-02-01T04:17:13;0.90;;;0.47;;
11533;SDS011;5823;50.588;8.462;2023-02-01T04:19:39;0.45;;;0.38;;
11533;SDS011;5823;50.588;8.462;2023-02-01T04:22:06;0.50;;;0.38;;
11533;SDS011;5823;50.588;8.462;2023-02-01T04:24:32;0.25;;;0.20;;
11533;SDS011;5823;50.588;8.462;2023-02-01T04:26:58;0.45;;;0.40;;
11533;SDS011;5823;50.588;8.462;2023-02-01T04:29:24;0.10;;;0.10;;
11533;SDS011;5823;50.588;8.462;2023-02-01T04:31:52;0.30;;;0.20;;
11533;SDS011;5823;50.588;8.462;2023-02-01T04:34:18;0.10;;;0.10;;
11533;SDS011;5823;50.588;8.462;2023-02-01T04:36:45;0.10;;;0.10;;
11533;SDS011;5823;50.588;8.462;2023-02-01T04:39:11;0.35;;;0.20;;
11533;SDS011;5823;50.588;8.462;2023-02-01T04:41:37;0.43;;;0.30;;
11533;SDS011;5823;50.588;8.462;2023-02-01T04:44:03;0.75;;;0.30;;
11533;SDS011;5823;50.588;8.462;2023-02-01T04:46:30;0.10;;;0.10;;
11533;SDS011;5823;50.588;8.462;2023-02-01T04:48:57;0.45;;;0.20;;
11533;SDS011;5823;50.588;8.462;2023-02-01T04:51:23;0.47;;;0.30;;
11533;SDS011;5823;50.588;8.462;2023-02-01T04:53:50;0.10;;;0.10;;
11533;SDS011;5823;50.588;8.462;2023-02-01T04:56:16;0.00;;;0.00;;
11533;SDS011;5823;50.588;8.462;2023-02-01T04:58:42;0.45;;;0.30;;
11533;SDS011;5823;50.588;8.462;2023-02-01T05:01:08;1.08;;;0.52;;
11533;SDS011;5823;50.588;8.462;2023-02-01T05:03:35;0.40;;;0.20;;
11533;SDS011;5823;50.588;8.462;2023-02-01T05:06:02;0.13;;;0.13;;
11533;SDS011;5823;50.588;8.462;2023-02-01T05:08:30;0.80;;;0.40;;
11533;SDS011;5823;50.588;8.462;2023-02-01T05:10:56;0.13;;;0.10;;
11533;SDS011;5823;50.588;8.462;2023-02-01T05:13:23;0.10;;;0.10;;
11533;SDS011;5823;50.588;8.462;2023-02-01T05:16:07;0.30;;;0.10;;
11533;SDS011;5823;50.588;8.462;2023-02-01T05:18:33;0.17;;;0.10;;
11533;SDS011;5823;50.588;8.462;2023-02-01T05:20:59;1.40;;;0.50;;
11533;SDS011;5823;50.588;8.462;2023-02-01T05:23:28;0.35;;;0.30;;
11533;SDS011;5823;50.588;8.462;2023-02-01T05:25:57;0.55;;;0.30;;
11533;SDS011;5823;50.588;8.462;2023-02-01T05:28:23;0.20;;;0.20;;
11533;SDS011;5823;50.588;8.462;2023-02-01T05:30:50;1.52;;;0.40;;
11533;SDS011;5823;50.588;8.462;2023-02-01T05:33:16;1.00;;;0.30;;
11533;SDS011;5823;50.588;8.462;2023-02-01T05:35:42;0.47;;;0.20;;
11533;SDS011;5823;50.588;8.462;2023-02-01T05:38:08;0.20;;;0.10;;
11533;SDS011;5823;50.588;8.462;2023-02-01T05:40:36;0.40;;;0.30;;
11533;SDS011;5823;50.588;8.462;2023-02-01T05:43:02;0.25;;;0.22;;
11533;SDS011;5823;50.588;8.462;2023-02-01T05:45:28;0.13;;;0.13;;
11533;SDS011;5823;50.588;8.462;2023-02-01T05:47:55;0.25;;;0.20;;
11533;SDS011;5823;50.588;8.462;2023-02-01T05:50:21;0.10;;;0.10;;
11533;SDS011;5823;50.588;8.462;2023-02-01T05:52:47;0.52;;;0.35;;
11533;SDS011;5823;50.588;8.462;2023-02-01T05:55:13;0.25;;;0.25;;
11533;SDS011;5823;50.588;8.462;2023-02-01T05:57:41;1.27;;;0.50;;
11533;SDS011;5823;50.588;8.462;2023-02-01T06:00:08;0.22;;;0.22;;
11533;SDS011;5823;50.588;8.462;2023-02-01T06:02:34;0.20;;;0.20;;
11533;SDS011;5823;50.588;8.462;2023-02-01T06:05:00;0.28;;;0.22;;
11533;SDS011;5823;50.588;8.462;2023-02-01T06:07:27;0.20;;;0.20;;
11533;SDS011;5823;50.588;8.462;2023-02-01T06:09:53;0.10;;;0.10;;
11533;SDS011;5823;50.588;8.462;2023-02-01T06:12:19;0.68;;;0.30;;
11533;SDS011;5823;50.588;8.462;2023-02-01T06:14:47;0.77;;;0.70;;
11533;SDS011;5823;50.588;8.462;2023-02-01T06:17:13;1.17;;;0.50;;
11533;SDS011;5823;50.588;8.462;2023-02-01T06:19:39;0.93;;;0.40;;
11533;SDS011;5823;50.588;8.462;2023-02-01T06:22:06;0.63;;;0.30;;
11533;SDS011;5823;50.588;8.462;2023-02-01T06:24:32;0.40;;;0.30;;
11533;SDS011;5823;50.588;8.462;2023-02-01T06:26:58;0.73;;;0.40;;
11533;SDS011;5823;50.588;8.462;2023-02-01T06:29:24;0.70;;;0.20;;
11533;SDS011;5823;50.588;8.462;2023-02-01T06:31:52;0.47;;;0.47;;
11533;SDS011;5823;50.588;8.462;2023-02-01T06:34:19;0.80;;;0.45;;
11533;SDS011;5823;50.588;8.462;2023-02-01T06:36:47;0.22;;;0.20;;
11533;SDS011;5823;50.588;8.462;2023-02-01T06:39:13;0.30;;;0.30;;
11533;SDS011;5823;50.588;8.462;2023-02-01T06:41:41;0.30;;;0.30;;
11533;SDS011;5823;50.588;8.462;2023-02-01T06:44:07;0.50;;;0.40;;
11533;SDS011;5823;50.588;8.462;2023-02-01T06:46:33;0.43;;;0.43;;
11533;SDS011;5823;50.588;8.462;2023-02-01T06:49:01;0.25;;;0.20;;
11533;SDS011;5823;50.588;8.462;2023-02-01T06:51:28;0.40;;;0.32;;
11533;SDS011;5823;50.588;8.462;2023-02-01T06:53:54;0.30;;;0.30;;
11533;SDS011;5823;50.588;8.462;2023-02-01T06:56:21;0.70;;;0.47;;
11533;SDS011;5823;50.588;8.462;2023-02-01T06:58:47;0.65;;;0.43;;
11533;SDS011;5823;50.588;8.462;2023-02-01T07:01:14;0.60;;;0.38;;
11533;SDS011;5823;50.588;8.462;2023-02-01T07:03:41;1.33;;;0.55;;
11533;SDS011;5823;50.588;8.462;2023-02-01T07:06:09;1.55;;;0.50;;
11533;SDS011;5823;50.588;8.462;2023-02-01T07:08:36;0.90;;;0.32;;
11533;SDS011;5823;50.588;8.462;2023-02-01T07:11:02;0.45;;;0.38;;
11533;SDS011;5823;50.588;8.462;2023-02-01T07:13:29;0.98;;;0.70;;
11533;SDS011;5823;50.588;8.462;2023-02-01T07:15:57;0.80;;;0.68;;
11533;SDS011;5823;50.588;8.462;2023-02-01T07:18:23;0.47;;;0.40;;
11533;SDS011;5823;50.588;8.462;2023-02-01T07:20:50;1.98;;;0.80;;
11533;SDS011;5823;50.588;8.462;2023-02-01T07:23:17;0.52;;;0.52;;
11533;SDS011;5823;50.588;8.462;2023-02-01T07:25:44;0.80;;;0.50;;
11533;SDS011;5823;50.588;8.462;2023-02-01T07:28:10;0.73;;;0.35;;
11533;SDS011;5823;50.588;8.462;2023-02-01T07:30:36;1.33;;;0.80;;
11533;SDS011;5823;50.588;8.462;2023-02-01T07:33:02;1.73;;;0.90;;
11533;SDS011;5823;50.588;8.462;2023-02-01T07:35:29;2.00;;;0.90;;
11533;SDS011;5823;50.588;8.462;2023-02-01T07:37:56;1.65;;;0.57;;
11533;SDS011;5823;50.588;8.462;2023-02-01T07:40:24;0.60;;;0.60;;
11533;SDS011;5823;50.588;8.462;2023-02-01T07:42:53;1.20;;;0.80;;
11533;SDS011;5823;50.588;8.462;2023-02-01T07:45:19;0.30;;;0.30;;
11533;SDS011;5823;50.588;8.462;2023-02-01T07:47:46;3.30;;;0.93;;
11533;SDS011;5823;50.588;8.462;2023-02-01T07:50:12;1.13;;;0.77;;
11533;SDS011;5823;50.588;8.462;2023-02-01T07:52:38;0.68;;;0.60;;
11533;SDS011;5823;50.588;8.462;2023-02-01T07:55:06;0.43;;;0.40;;
11533;SDS011;5823;50.588;8.462;2023-02-01T07:57:33;2.65;;;0.80;;
11533;SDS011;5823;50.588;8.462;2023-02-01T08:00:00;1.20;;;0.80;;
11533;SDS011;5823;50.588;8.462;2023-02-01T08:02:44;1.40;;;0.68;;
11533;SDS011;5823;50.588;8.462;2023-02-01T08:05:10;0.90;;;0.75;;
11533;SDS011;5823;50.588;8.462;2023-02-01T08:07:36;1.00;;;0.68;;
11533;SDS011;5823;50.588;8.462;2023-02-01T08:10:03;1.33;;;0.93;;
11533;SDS011;5823;50.588;8.462;2023-02-01T08:12:30;1.10;;;0.90;;
11533;SDS011;5823;50.588;8.462;2023-02-01T08:14:58;3.05;;;0.98;;
11533;SDS011;5823;50.588;8.462;2023-02-01T08:17:24;2.40;;;1.15;;
11533;SDS011;5823;50.588;8.462;2023-02-01T08:19:51;1.80;;;0.82;;
11533;SDS011;5823;50.588;8.462;2023-02-01T08:22:17;0.95;;;0.55;;
11533;SDS011;5823;50.588;8.462;2023-02-01T08:24:43;1.25;;;0.80;;
11533;SDS011;5823;50.588;8.462;2023-02-01T08:27:09;1.13;;;0.60;;
11533;SDS011;5823;50.588;8.462;2023-02-01T08:29:37;1.25;;;0.70;;
11533;SDS011;5823;50.588;8.462;2023-02-01T08:32:05;1.38;;;0.80;;
11533;SDS011;5823;50.588;8.462;2023-02-01T08:34:31;1.67;;;0.98;;
11533;SDS011;5823;50.588;8.462;2023-02-01T08:36:57;1.25;;;0.77;;
11533;SDS011;5823;50.588;8.462;2023-02-01T08:39:24;0.90;;;0.57;;
11533;SDS011;5823;50.588;8.462;2023-02-01T08:41:51;1.80;;;0.90;;
11533;SDS011;5823;50.588;8.462;2023-02-01T08:44:31;1.65;;;0.90;;
11533;SDS011;5823;50.588;8.462;2023-02-01T08:46:57;0.60;;;0.60;;
11533;SDS011;5823;50.588;8.462;2023-02-01T08:49:25;3.35;;;1.00;;
11533;SDS011;5823;50.588;8.462;2023-02-01T08:51:51;1.42;;;0.98;;
11533;SDS011;5823;50.588;8.462;2023-02-01T08:54:17;1.38;;;0.75;;
11533;SDS011;5823;50.588;8.462;2023-02-01T08:56:44;0.63;;;0.63;;
11533;SDS011;5823;50.588;8.462;2023-02-01T08:59:10;0.98;;;0.80;;
11533;SDS011;5823;50.588;8.462;2023-02-01T09:01:36;7.38;;;2.10;;
11533;SDS011;5823;50.588;8.462;2023-02-01T09:04:02;1.83;;;0.93;;
11533;SDS011;5823;50.588;8.462;2023-02-01T09:06:30;1.67;;;1.13;;
11533;SDS011;5823;50.588;8.462;2023-02-01T09:08:56;2.17;;;1.08;;
11533;SDS011;5823;50.588;8.462;2023-02-01T09:11:22;0.55;;;0.55;;
11533;SDS011;5823;50.588;8.462;2023-02-01T09:13:48;1.48;;;0.95;;
11533;SDS011;5823;50.588;8.462;2023-02-01T09:16:15;1.10;;;0.90;;
11533;SDS011;5823;50.588;8.462;2023-02-01T09:18:41;1.88;;;0.95;;
11533;SDS011;5823;50.588;8.462;2023-02-01T09:21:07;2.80;;;1.38;;
11533;SDS011;5823;50.588;8.462;2023-02-01T09:23:35;2.35;;;1.17;;
11533;SDS011;5823;50.588;8.462;2023-02-01T09:26:01;1.00;;;0.70;;
11533;SDS011;5823;50.588;8.462;2023-02-01T09:28:28;1.02;;;0.77;;
11533;SDS011;5823;50.588;8.462;2023-02-01T09:30:55;2.60;;;0.85;;
11533;SDS011;5823;50.588;8.462;2023-02-01T09:33:21;2.05;;;1.05;;
11533;SDS011;5823;50.588;8.462;2023-02-01T09:35:54;1.92;;;0.80;;
11533;SDS011;5823;50.588;8.462;2023-02-01T09:38:21;1.63;;;0.98;;
11533;SDS011;5823;50.588;8.462;2023-02-01T09:40:49;0.73;;;0.73;;
11533;SDS011;5823;50.588;8.462;2023-02-01T09:43:18;1.42;;;0.70;;
11533;SDS011;5823;50.588;8.462;2023-02-01T09:45:49;0.50;;;0.50;;
11533;SDS011;5823;50.588;8.462;2023-02-01T09:48:19;3.72;;;1.10;;
11533;SDS011;5823;50.588;8.462;2023-02-01T09:50:47;0.82;;;0.60;;
11533;SDS011;5823;50.588;8.462;2023-02-01T09:53:17;1.10;;;0.60;;
11533;SDS011;5823;50.588;8.462;2023-02-01T09:55:45;2.90;;;0.93;;
11533;SDS011;5823;50.588;8.462;2023-02-01T09:58:15;2.83;;;0.80;;
11533;SDS011;5823;50.588;8.462;2023-02-01T10:00:43;1.50;;;0.90;;
11533;SDS011;5823;50.588;8.462;2023-02-01T10:03:13;1.27;;;0.70;;
11533;SDS011;5823;50.588;8.462;2023-02-01T10:05:46;1.02;;;0.60;;
11533;SDS011;5823;50.588;8.462;2023-02-01T10:08:17;0.35;;;0.35;;
11533;SDS011;5823;50.588;8.462;2023-02-01T10:10:45;0.90;;;0.50;;
11533;SDS011;5823;50.588;8.462;2023-02-01T10:13:24;0.95;;;0.88;;
11533;SDS011;5823;50.588;8.462;2023-02-01T10:15:55;1.33;;;0.90;;
11533;SDS011;5823;50.588;8.462;2023-02-01T10:18:29;0.90;;;0.63;;
11533;SDS011;5823;50.588;8.462;2023-02-01T10:21:00;0.43;;;0.43;;
11533;SDS011;5823;50.588;8.462;2023-02-01T10:23:32;1.48;;;0.80;;
11533;SDS011;5823;50.588;8.462;2023-02-01T10:26:05;0.70;;;0.63;;
11533;SDS011;5823;50.588;8.462;2023-02-01T10:28:36;1.38;;;0.60;;
11533;SDS011;5823;50.588;8.462;2023-02-01T10:31:04;0.52;;;0.52;;
11533;SDS011;5823;50.588;8.462;2023-02-01T10:33:32;0.70;;;0.30;;
11533;SDS011;5823;50.588;8.462;2023-02-01T10:36:00;0.38;;;0.28;;
11533;SDS011;5823;50.588;8.462;2023-02-01T10:38:29;0.73;;;0.22;;
11533;SDS011;5823;50.588;8.462;2023-02-01T10:40:56;1.45;;;0.40;;
11533;SDS011;5823;50.588;8.462;2023-02-01T10:43:25;1.90;;;0.43;;
11533;SDS011;5823;50.588;8.462;2023-02-01T10:45:52;0.77;;;0.40;;
11533;SDS011;5823;50.588;8.462;2023-02-01T10:48:19;0.55;;;0.50;;
11533;SDS011;5823;50.588;8.462;2023-02-01T10:50:46;0.95;;;0.35;;
11533;SDS011;5823;50.588;8.462;2023-02-01T10:53:17;1.20;;;0.60;;
11533;SDS011;5823;50.588;8.462;2023-02-01T10:55:48;1.75;;;0.98;;
11533;SDS011;5823;50.588;8.462;2023-02-01T10:58:15;0.55;;;0.50;;
11533;SDS011;5823;50.588;8.462;2023-02-01T11:00:46;2.13;;;1.00;;
11533;SDS011;5823;50.588;8.462;2023-02-01T11:06:08;0.82;;;0.60;;
11533;SDS011;5823;50.588;8.462;2023-02-01T11:08:41;1.90;;;0.90;;
11533;SDS011;5823;50.588;8.462;2023-02-01T11:11:08;1.83;;;0.88;;
11533;SDS011;5823;50.588;8.462;2023-02-01T11:13:37;0.60;;;0.40;;
11533;SDS011;5823;50.588;8.462;2023-02-01T11:16:04;1.30;;;0.60;;
11533;SDS011;5823;50.588;8.462;2023-02-01T11:18:31;0.80;;;0.32;;
11533;SDS011;5823;50.588;8.462;2023-02-01T11:20:58;1.45;;;0.60;;
11533;SDS011;5823;50.588;8.462;2023-02-01T11:23:27;0.32;;;0.32;;
11533;SDS011;5823;50.588;8.462;2023-02-01T11:25:55;0.77;;;0.70;;
11533;SDS011;5823;50.588;8.462;2023-02-01T11:28:22;0.35;;;0.35;;
11533;SDS011;5823;50.588;8.462;2023-02-01T11:30:49;0.47;;;0.40;;
11533;SDS011;5823;50.588;8.462;2023-02-01T11:33:18;0.38;;;0.20;;
11533;SDS011;5823;50.588;8.462;2023-02-01T11:35:45;0.35;;;0.32;;
11533;SDS011;5823;50.588;8.462;2023-02-01T11:38:21;0.55;;;0.47;;
11533;SDS011;5823;50.588;8.462;2023-02-01T11:40:49;0.20;;;0.20;;
11533;SDS011;5823;50.588;8.462;2023-02-01T11:43:17;0.40;;;0.40;;
11533;SDS011;5823;50.588;8.462;2023-02-01T11:45:53;0.45;;;0.32;;
11533;SDS011;5823;50.588;8.462;2023-02-01T11:48:20;0.70;;;0.30;;
11533;SDS011;5823;50.588;8.462;2023-02-01T11:50:48;1.35;;;0.40;;
11533;SDS011;5823;50.588;8.462;2023-02-01T11:53:20;0.20;;;0.20;;
11533;SDS011;5823;50.588;8.462;2023-02-01T11:55:58;0.68;;;0.47;;
11533;SDS011;5823;50.588;8.462;2023-02-01T11:58:41;1.20;;;0.52;;
11533;SDS011;5823;50.588;8.462;2023-02-01T12:01:16;0.85;;;0.50;;
11533;SDS011;5823;50.588;8.462;2023-02-01T12:03:52;1.08;;;0.60;;
11533;SDS011;5823;50.588;8.462;2023-02-01T12:06:23;0.25;;;0.20;;
11533;SDS011;5823;50.588;8.462;2023-02-01T12:08:56;0.65;;;0.28;;
11533;SDS011;5823;50.588;8.462;2023-02-01T12:11:30;0.80;;;0.40;;
11533;SDS011;5823;50.588;8.462;2023-02-01T12:14:01;0.82;;;0.52;;
11533;SDS011;5823;50.588;8.462;2023-02-01T12:16:31;0.65;;;0.30;;
11533;SDS011;5823;50.588;8.462;2023-02-01T12:19:15;0.60;;;0.50;;
11533;SDS011;5823;50.588;8.462;2023-02-01T12:21:50;0.10;;;0.10;;
11533;SDS011;5823;50.588;8.462;2023-02-01T12:24:25;1.00;;;0.40;;
11533;SDS011;5823;50.588;8.462;2023-02-01T12:27:00;0.32;;;0.32;;
11533;SDS011;5823;50.588;8.462;2023-02-01T12:29:39;0.28;;;0.28;;
11533;SDS011;5823;50.588;8.462;2023-02-01T12:32:11;0.40;;;0.17;;
11533;SDS011;5823;50.588;8.462;2023-02-01T12:34:48;1.25;;;0.40;;
11533;SDS011;5823;50.588;8.462;2023-02-01T12:37:19;1.50;;;0.93;;
11533;SDS011;5823;50.588;8.462;2023-02-01T12:39:50;1.13;;;0.60;;
11533;SDS011;5823;50.588;8.462;2023-02-01T12:42:21;0.63;;;0.38;;
11533;SDS011;5823;50.588;8.462;2023-02-01T12:44:50;1.17;;;0.65;;
11533;SDS011;5823;50.588;8.462;2023-02-01T12:47:20;0.38;;;0.35;;
11533;SDS011;5823;50.588;8.462;2023-02-01T12:49:49;0.57;;;0.35;;
11533;SDS011;5823;50.588;8.462;2023-02-01T12:52:18;0.35;;;0.22;;
11533;SDS011;5823;50.588;8.462;2023-02-01T12:54:47;0.32;;;0.22;;
11533;SDS011;5823;50.588;8.462;2023-02-01T12:57:14;0.47;;;0.20;;
11533;SDS011;5823;50.588;8.462;2023-02-01T12:59:47;0.45;;;0.30;;
11533;SDS011;5823;50.588;8.462;2023-02-01T13:02:16;0.50;;;0.47;;
11533;SDS011;5823;50.588;8.462;2023-02-01T13:04:49;4.07;;;1.30;;
11533;SDS011;5823;50.588;8.462;2023-02-01T13:07:18;2.63;;;1.30;;
11533;SDS011;5823;50.588;8.462;2023-02-01T13:09:47;0.70;;;0.50;;
11533;SDS011;5823;50.588;8.462;2023-02-01T13:12:16;0.70;;;0.60;;
11533;SDS011;5823;50.588;8.462;2023-02-01T13:14:46;0.93;;;0.60;;
11533;SDS011;5823;50.588;8.462;2023-02-01T13:17:15;1.60;;;1.13;;
11533;SDS011;5823;50.588;8.462;2023-02-01T13:19:43;1.88;;;1.23;;
11533;SDS011;5823;50.588;8.462;2023-02-01T13:22:12;1.38;;;0.70;;
11533;SDS011;5823;50.588;8.462;2023-02-01T13:24:40;1.60;;;0.77;;
11533;SDS011;5823;50.588;8.462;2023-02-01T13:27:11;1.95;;;0.80;;
11533;SDS011;5823;50.588;8.462;2023-02-01T13:29:37;0.68;;;0.50;;
11533;SDS011;5823;50.588;8.462;2023-02-01T13:32:14;0.55;;;0.40;;
11533;SDS011;5823;50.588;8.462;2023-02-01T13:34:47;2.42;;;0.47;;
11533;SDS011;5823;50.588;8.462;2023-02-01T13:37:21;0.50;;;0.50;;
11533;SDS011;5823;50.588;8.462;2023-02-01T13:39:52;0.80;;;0.50;;
11533;SDS011;5823;50.588;8.462;2023-02-01T13:42:22;0.30;;;0.30;;
11533;SDS011;5823;50.588;8.462;2023-02-01T13:44:50;0.80;;;0.30;;
11533;SDS011;5823;50.588;8.462;2023-02-01T13:47:24;1.27;;;0.52;;
11533;SDS011;5823;50.588;8.462;2023-02-01T13:49:51;1.13;;;0.60;;
11533;SDS011;5823;50.588;8.462;2023-02-01T13:52:23;0.95;;;0.77;;
11533;SDS011;5823;50.588;8.462;2023-02-01T13:54:58;1.73;;;0.60;;
11533;SDS011;5823;50.588;8.462;2023-02-01T13:57:35;0.57;;;0.57;;
11533;SDS011;5823;50.588;8.462;2023-02-01T14:00:06;1.45;;;0.63;;
11533;SDS011;5823;50.588;8.462;2023-02-01T14:02:47;2.55;;;0.65;;
11533;SDS011;5823;50.588;8.462;2023-02-01T14:05:54;1.17;;;0.65;;
11533;SDS011;5823;50.588;8.462;2023-02-01T14:08:12;0.43;;;0.30;;
11533;SDS011;5823;50.588;8.462;2023-02-01T14:10:48;1.02;;;0.35;;
11533;SDS011;5823;50.588;8.462;2023-02-01T14:13:22;0.30;;;0.30;;
11533;SDS011;5823;50.588;8.462;2023-02-01T14:16:10;1.15;;;0.45;;
11533;SDS011;5823;50.588;8.462;2023-02-01T14:21:24;0.30;;;0.30;;
11533;SDS011;5823;50.588;8.462;2023-02-01T14:23:55;0.55;;;0.40;;
11533;SDS011;5823;50.588;8.462;2023-02-01T14:26:23;0.93;;;0.80;;
11533;SDS011;5823;50.588;8.462;2023-02-01T14:28:52;1.10;;;0.68;;
11533;SDS011;5823;50.588;8.462;2023-02-01T14:31:29;1.45;;;0.80;;
11533;SDS011;5823;50.588;8.462;2023-02-01T14:33:57;1.00;;;0.70;;
11533;SDS011;5823;50.588;8.462;2023-02-01T14:36:25;2.38;;;0.57;;
11533;SDS011;5823;50.588;8.462;2023-02-01T14:38:52;0.93;;;0.73;;
11533;SDS011;5823;50.588;8.462;2023-02-01T14:41:26;1.85;;;0.95;;
11533;SDS011;5823;50.588;8.462;2023-02-01T14:44:21;0.90;;;0.50;;
11533;SDS011;5823;50.588;8.462;2023-02-01T14:49:34;1.40;;;0.63;;
11533;SDS011;5823;50.588;8.462;2023-02-01T14:52:04;0.75;;;0.43;;
11533;SDS011;5823;50.588;8.462;2023-02-01T14:54:32;0.70;;;0.50;;
11533;SDS011;5823;50.588;8.462;2023-02-01T14:56:58;0.75;;;0.40;;
11533;SDS011;5823;50.588;8.462;2023-02-01T14:59:25;1.10;;;0.43;;
11533;SDS011;5823;50.588;8.462;2023-02-01T15:01:58;0.88;;;0.60;;
11533;SDS011;5823;50.588;8.462;2023-02-01T15:04:25;0.47;;;0.45;;
11533;SDS011;5823;50.588;8.462;2023-02-01T15:06:52;1.48;;;0.95;;
11533;SDS011;5823;50.588;8.462;2023-02-01T15:09:27;0.50;;;0.22;;
11533;SDS011;5823;50.588;8.462;2023-02-01T15:11:56;0.70;;;0.57;;
11533;SDS011;5823;50.588;8.462;2023-02-01T15:14:23;0.80;;;0.70;;
11533;SDS011;5823;50.588;8.462;2023-02-01T15:16:49;0.22;;;0.20;;
11533;SDS011;5823;50.588;8.462;2023-02-01T15:19:19;0.38;;;0.30;;
11533;SDS011;5823;50.588;8.462;2023-02-01T15:21:46;1.23;;;0.70;;
11533;SDS011;5823;50.588;8.462;2023-02-01T15:24:14;1.33;;;0.60;;